sensor_id;sensor_type;location;lat;lon;timestamp;P1;durP1;ratioP1;P2;durP2;ratioP2
33162;SDS011;29282;45.656;11.302;2022-08-21T00:00:07;3.00;;;1.70;;
33162;SDS011;29282;45.656;11.302;2022-08-21T00:02:36;5.03;;;1.42;;
33162;SDS011;29282;45.656;11.302;2022-08-21T00:05:02;2.45;;;1.75;;
33162;SDS011;29282;45.656;11.302;2022-08-21T00:07:28;5.60;;;1.48;;
33162;SDS011;29282;45.656;11.302;2022-08-21T00:09:54;3.97;;;1.30;;
33162;SDS011;29282;45.656;11.302;2022-08-21T00:12:20;5.85;;;1.52;;
33162;SDS011;29282;45.656;11.302;2022-08-21T00:14:46;5.90;;;1.50;;
33162;SDS011;29282;45.656;11.302;2022-08-21T00:17:12;4.90;;;1.95;;
33162;SDS011;29282;45.656;11.302;2022-08-21T00:19:37;7.60;;;1.45;;
33162;SDS011;29282;45.656;11.302;2022-08-21T00:22:03;2.70;;;1.20;;
33162;SDS011;29282;45.656;11.302;2022-08-21T00:24:28;5.22;;;1.92;;
33162;SDS011;29282;45.656;11.302;2022-08-21T00:26:54;4.68;;;1.58;;
33162;SDS011;29282;45.656;11.302;2022-08-21T00:29:22;8.98;;;1.60;;
33162;SDS011;29282;45.656;11.302;2022-08-21T00:31:50;7.15;;;1.52;;
33162;SDS011;29282;45.656;11.302;2022-08-21T00:34:16;5.10;;;1.27;;
33162;SDS011;29282;45.656;11.302;2022-08-21T00:36:41;3.70;;;1.30;;
33162;SDS011;29282;45.656;11.302;2022-08-21T00:39:07;3.40;;;1.50;;
33162;SDS011;29282;45.656;11.302;2022-08-21T00:41:34;3.22;;;1.38;;
33162;SDS011;29282;45.656;11.302;2022-08-21T00:44:01;9.23;;;1.50;;
33162;SDS011;29282;45.656;11.302;2022-08-21T00:46:28;2.25;;;1.38;;
33162;SDS011;29282;45.656;11.302;2022-08-21T00:48:55;3.42;;;1.48;;
33162;SDS011;29282;45.656;11.302;2022-08-21T00:51:55;1.98;;;1.10;;
33162;SDS011;29282;45.656;11.302;2022-08-21T00:54:25;3.63;;;1.30;;
33162;SDS011;29282;45.656;11.302;2022-08-21T00:56:56;2.75;;;1.40;;
33162;SDS011;29282;45.656;11.302;2022-08-21T00:59:23;4.80;;;1.50;;
33162;SDS011;29282;45.656;11.302;2022-08-21T01:01:51;2.65;;;1.45;;
33162;SDS011;29282;45.656;11.302;2022-08-21T01:04:18;1.40;;;1.30;;
33162;SDS011;29282;45.656;11.302;2022-08-21T01:06:44;2.35;;;1.40;;
33162;SDS011;29282;45.656;11.302;2022-08-21T01:09:10;1.92;;;1.10;;
33162;SDS011;29282;45.656;11.302;2022-08-21T01:11:36;2.50;;;1.40;;
33162;SDS011;29282;45.656;11.302;2022-08-21T01:14:02;7.28;;;1.52;;
33162;SDS011;29282;45.656;11.302;2022-08-21T01:16:28;2.47;;;1.48;;
33162;SDS011;29282;45.656;11.302;2022-08-21T01:18:54;3.47;;;1.27;;
33162;SDS011;29282;45.656;11.302;2022-08-21T01:21:25;1.80;;;1.25;;
33162;SDS011;29282;45.656;11.302;2022-08-21T01:23:53;1.52;;;1.17;;
33162;SDS011;29282;45.656;11.302;2022-08-21T01:26:21;1.35;;;1.13;;
33162;SDS011;29282;45.656;11.302;2022-08-21T01:28:51;3.72;;;1.70;;
33162;SDS011;29282;45.656;11.302;2022-08-21T01:31:22;2.05;;;1.30;;
33162;SDS011;29282;45.656;11.302;2022-08-21T01:33:49;3.03;;;1.45;;
33162;SDS011;29282;45.656;11.302;2022-08-21T01:36:14;1.90;;;1.10;;
33162;SDS011;29282;45.656;11.302;2022-08-21T01:38:40;1.40;;;1.30;;
33162;SDS011;29282;45.656;11.302;2022-08-21T01:41:05;2.88;;;1.50;;
33162;SDS011;29282;45.656;11.302;2022-08-21T01:43:31;2.58;;;1.23;;
33162;SDS011;29282;45.656;11.302;2022-08-21T01:45:57;1.70;;;1.33;;
33162;SDS011;29282;45.656;11.302;2022-08-21T01:48:23;2.80;;;1.38;;
33162;SDS011;29282;45.656;11.302;2022-08-21T01:50:48;2.33;;;1.15;;
33162;SDS011;29282;45.656;11.302;2022-08-21T01:53:17;1.52;;;1.20;;
33162;SDS011;29282;45.656;11.302;2022-08-21T01:55:43;2.13;;;1.27;;
33162;SDS011;29282;45.656;11.302;2022-08-21T01:58:09;1.38;;;1.23;;
33162;SDS011;29282;45.656;11.302;2022-08-21T02:00:34;1.83;;;1.30;;
33162;SDS011;29282;45.656;11.302;2022-08-21T02:03:00;3.10;;;1.40;;
33162;SDS011;29282;45.656;11.302;2022-08-21T02:05:25;3.70;;;1.48;;
33162;SDS011;29282;45.656;11.302;2022-08-21T02:07:51;2.13;;;1.50;;
33162;SDS011;29282;45.656;11.302;2022-08-21T02:10:20;2.58;;;1.33;;
33162;SDS011;29282;45.656;11.302;2022-08-21T02:12:51;2.20;;;1.30;;
33162;SDS011;29282;45.656;11.302;2022-08-21T02:15:18;1.20;;;1.08;;
33162;SDS011;29282;45.656;11.302;2022-08-21T02:17:45;1.50;;;1.30;;
33162;SDS011;29282;45.656;11.302;2022-08-21T02:20:17;1.67;;;1.10;;
33162;SDS011;29282;45.656;11.302;2022-08-21T02:22:46;1.83;;;1.40;;
33162;SDS011;29282;45.656;11.302;2022-08-21T02:25:12;1.67;;;1.20;;
33162;SDS011;29282;45.656;11.302;2022-08-21T02:27:39;3.38;;;1.60;;
33162;SDS011;29282;45.656;11.302;2022-08-21T02:30:07;1.50;;;1.13;;
33162;SDS011;29282;45.656;11.302;2022-08-21T02:32:33;2.40;;;1.25;;
33162;SDS011;29282;45.656;11.302;2022-08-21T02:34:59;4.13;;;1.35;;
33162;SDS011;29282;45.656;11.302;2022-08-21T02:37:24;2.05;;;1.40;;
33162;SDS011;29282;45.656;11.302;2022-08-21T02:39:50;2.90;;;1.40;;
33162;SDS011;29282;45.656;11.302;2022-08-21T02:42:16;2.30;;;1.10;;
33162;SDS011;29282;45.656;11.302;2022-08-21T02:44:41;2.65;;;1.50;;
33162;SDS011;29282;45.656;11.302;2022-08-21T02:47:07;1.35;;;1.20;;
33162;SDS011;29282;45.656;11.302;2022-08-21T02:49:32;1.58;;;1.25;;
33162;SDS011;29282;45.656;11.302;2022-08-21T02:51:58;2.80;;;1.23;;
33162;SDS011;29282;45.656;11.302;2022-08-21T02:54:24;3.15;;;1.40;;
33162;SDS011;29282;45.656;11.302;2022-08-21T02:56:49;1.40;;;1.30;;
33162;SDS011;29282;45.656;11.302;2022-08-21T02:59:15;1.55;;;1.20;;
33162;SDS011;29282;45.656;11.302;2022-08-21T03:01:40;2.55;;;1.23;;
33162;SDS011;29282;45.656;11.302;2022-08-21T03:04:06;1.80;;;1.20;;
33162;SDS011;29282;45.656;11.302;2022-08-21T03:06:31;1.27;;;1.17;;
33162;SDS011;29282;45.656;11.302;2022-08-21T03:08:57;1.55;;;1.00;;
33162;SDS011;29282;45.656;11.302;2022-08-21T03:11:23;2.47;;;1.38;;
33162;SDS011;29282;45.656;11.302;2022-08-21T03:13:48;2.88;;;1.30;;
33162;SDS011;29282;45.656;11.302;2022-08-21T03:16:14;2.50;;;1.35;;
33162;SDS011;29282;45.656;11.302;2022-08-21T03:18:39;2.35;;;1.30;;
33162;SDS011;29282;45.656;11.302;2022-08-21T03:21:05;2.88;;;1.20;;
33162;SDS011;29282;45.656;11.302;2022-08-21T03:23:31;1.77;;;1.25;;
33162;SDS011;29282;45.656;11.302;2022-08-21T03:25:57;1.77;;;1.15;;
33162;SDS011;29282;45.656;11.302;2022-08-21T03:28:23;1.40;;;1.20;;
33162;SDS011;29282;45.656;11.302;2022-08-21T03:30:49;1.80;;;1.40;;
33162;SDS011;29282;45.656;11.302;2022-08-21T03:33:16;1.33;;;1.23;;
33162;SDS011;29282;45.656;11.302;2022-08-21T03:35:43;1.40;;;1.30;;
33162;SDS011;29282;45.656;11.302;2022-08-21T03:38:10;1.20;;;1.10;;
33162;SDS011;29282;45.656;11.302;2022-08-21T03:40:37;1.80;;;1.20;;
33162;SDS011;29282;45.656;11.302;2022-08-21T03:43:06;1.35;;;1.20;;
33162;SDS011;29282;45.656;11.302;2022-08-21T03:45:34;1.30;;;1.20;;
33162;SDS011;29282;45.656;11.302;2022-08-21T03:48:01;1.20;;;1.10;;
33162;SDS011;29282;45.656;11.302;2022-08-21T03:50:30;2.80;;;1.30;;
33162;SDS011;29282;45.656;11.302;2022-08-21T03:52:57;1.55;;;1.20;;
33162;SDS011;29282;45.656;11.302;2022-08-21T03:55:23;1.45;;;1.20;;
33162;SDS011;29282;45.656;11.302;2022-08-21T03:57:50;1.58;;;1.10;;
33162;SDS011;29282;45.656;11.302;2022-08-21T04:00:16;1.95;;;1.23;;
33162;SDS011;29282;45.656;11.302;2022-08-21T04:02:43;1.45;;;1.20;;
33162;SDS011;29282;45.656;11.302;2022-08-21T04:05:13;1.63;;;1.10;;
33162;SDS011;29282;45.656;11.302;2022-08-21T04:07:39;1.77;;;1.30;;
33162;SDS011;29282;45.656;11.302;2022-08-21T04:10:05;2.92;;;1.17;;
33162;SDS011;29282;45.656;11.302;2022-08-21T04:12:32;3.95;;;1.30;;
33162;SDS011;29282;45.656;11.302;2022-08-21T04:14:58;1.20;;;1.10;;
33162;SDS011;29282;45.656;11.302;2022-08-21T04:17:24;1.25;;;1.13;;
33162;SDS011;29282;45.656;11.302;2022-08-21T04:19:49;1.30;;;1.20;;
33162;SDS011;29282;45.656;11.302;2022-08-21T04:22:15;1.42;;;1.33;;
33162;SDS011;29282;45.656;11.302;2022-08-21T04:24:41;1.30;;;1.15;;
33162;SDS011;29282;45.656;11.302;2022-08-21T04:27:07;1.40;;;1.20;;
33162;SDS011;29282;45.656;11.302;2022-08-21T04:29:33;1.48;;;1.20;;
33162;SDS011;29282;45.656;11.302;2022-08-21T04:31:58;1.00;;;1.00;;
33162;SDS011;29282;45.656;11.302;2022-08-21T04:34:24;1.25;;;1.15;;
33162;SDS011;29282;45.656;11.302;2022-08-21T04:36:49;1.73;;;1.30;;
33162;SDS011;29282;45.656;11.302;2022-08-21T04:39:15;1.75;;;1.13;;
33162;SDS011;29282;45.656;11.302;2022-08-21T04:41:40;1.83;;;1.10;;
33162;SDS011;29282;45.656;11.302;2022-08-21T04:44:06;1.27;;;1.05;;
33162;SDS011;29282;45.656;11.302;2022-08-21T04:46:33;1.35;;;1.20;;
33162;SDS011;29282;45.656;11.302;2022-08-21T04:48:59;1.10;;;1.00;;
33162;SDS011;29282;45.656;11.302;2022-08-21T04:51:29;1.45;;;1.30;;
33162;SDS011;29282;45.656;11.302;2022-08-21T04:54:10;2.60;;;1.10;;
33162;SDS011;29282;45.656;11.302;2022-08-21T04:56:41;1.38;;;1.27;;
33162;SDS011;29282;45.656;11.302;2022-08-21T04:59:11;1.20;;;1.10;;
33162;SDS011;29282;45.656;11.302;2022-08-21T05:01:41;1.38;;;1.10;;
33162;SDS011;29282;45.656;11.302;2022-08-21T05:04:09;1.30;;;1.20;;
33162;SDS011;29282;45.656;11.302;2022-08-21T05:06:37;1.73;;;1.00;;
33162;SDS011;29282;45.656;11.302;2022-08-21T05:09:07;1.27;;;1.02;;
33162;SDS011;29282;45.656;11.302;2022-08-21T05:11:34;1.52;;;0.95;;
33162;SDS011;29282;45.656;11.302;2022-08-21T05:14:02;1.10;;;1.00;;
33162;SDS011;29282;45.656;11.302;2022-08-21T05:16:28;2.15;;;1.20;;
33162;SDS011;29282;45.656;11.302;2022-08-21T05:18:53;1.20;;;1.10;;
33162;SDS011;29282;45.656;11.302;2022-08-21T05:21:19;1.38;;;1.20;;
33162;SDS011;29282;45.656;11.302;2022-08-21T05:23:45;1.38;;;1.10;;
33162;SDS011;29282;45.656;11.302;2022-08-21T05:26:11;2.22;;;1.10;;
33162;SDS011;29282;45.656;11.302;2022-08-21T05:28:37;1.15;;;1.05;;
33162;SDS011;29282;45.656;11.302;2022-08-21T05:31:05;1.20;;;1.10;;
33162;SDS011;29282;45.656;11.302;2022-08-21T05:33:30;1.33;;;1.23;;
33162;SDS011;29282;45.656;11.302;2022-08-21T05:35:56;1.45;;;1.08;;
33162;SDS011;29282;45.656;11.302;2022-08-21T05:38:23;1.02;;;1.00;;
33162;SDS011;29282;45.656;11.302;2022-08-21T05:40:49;1.20;;;1.10;;
33162;SDS011;29282;45.656;11.302;2022-08-21T05:43:15;1.20;;;1.10;;
33162;SDS011;29282;45.656;11.302;2022-08-21T05:45:41;2.22;;;1.00;;
33162;SDS011;29282;45.656;11.302;2022-08-21T05:48:18;1.02;;;0.90;;
33162;SDS011;29282;45.656;11.302;2022-08-21T05:50:48;1.20;;;1.00;;
33162;SDS011;29282;45.656;11.302;2022-08-21T05:53:15;1.25;;;1.13;;
33162;SDS011;29282;45.656;11.302;2022-08-21T05:55:42;0.90;;;0.90;;
33162;SDS011;29282;45.656;11.302;2022-08-21T05:58:12;1.42;;;1.13;;
33162;SDS011;29282;45.656;11.302;2022-08-21T06:00:38;0.90;;;0.90;;
33162;SDS011;29282;45.656;11.302;2022-08-21T06:03:04;1.10;;;1.00;;
33162;SDS011;29282;45.656;11.302;2022-08-21T06:05:37;1.20;;;1.10;;
33162;SDS011;29282;45.656;11.302;2022-08-21T06:08:03;1.35;;;1.20;;
33162;SDS011;29282;45.656;11.302;2022-08-21T06:10:29;0.93;;;0.93;;
33162;SDS011;29282;45.656;11.302;2022-08-21T06:12:54;1.58;;;1.08;;
33162;SDS011;29282;45.656;11.302;2022-08-21T06:15:20;1.30;;;1.20;;
33162;SDS011;29282;45.656;11.302;2022-08-21T06:17:46;2.00;;;1.00;;
33162;SDS011;29282;45.656;11.302;2022-08-21T06:20:11;0.98;;;0.98;;
33162;SDS011;29282;45.656;11.302;2022-08-21T06:22:37;1.08;;;0.98;;
33162;SDS011;29282;45.656;11.302;2022-08-21T06:25:03;0.93;;;0.93;;
33162;SDS011;29282;45.656;11.302;2022-08-21T06:27:28;1.17;;;1.08;;
33162;SDS011;29282;45.656;11.302;2022-08-21T06:29:54;0.90;;;0.90;;
33162;SDS011;29282;45.656;11.302;2022-08-21T06:32:22;1.63;;;1.00;;
33162;SDS011;29282;45.656;11.302;2022-08-21T06:34:47;0.90;;;0.90;;
33162;SDS011;29282;45.656;11.302;2022-08-21T06:37:13;1.25;;;0.98;;
33162;SDS011;29282;45.656;11.302;2022-08-21T06:39:38;0.85;;;0.85;;
33162;SDS011;29282;45.656;11.302;2022-08-21T06:42:04;0.93;;;0.88;;
33162;SDS011;29282;45.656;11.302;2022-08-21T06:44:30;1.10;;;1.00;;
33162;SDS011;29282;45.656;11.302;2022-08-21T06:46:56;1.75;;;1.05;;
33162;SDS011;29282;45.656;11.302;2022-08-21T06:49:22;0.80;;;0.80;;
33162;SDS011;29282;45.656;11.302;2022-08-21T06:51:47;1.58;;;0.93;;
33162;SDS011;29282;45.656;11.302;2022-08-21T06:54:13;1.15;;;1.00;;
33162;SDS011;29282;45.656;11.302;2022-08-21T06:56:38;1.27;;;1.00;;
33162;SDS011;29282;45.656;11.302;2022-08-21T06:59:05;1.05;;;0.95;;
33162;SDS011;29282;45.656;11.302;2022-08-21T07:01:30;1.05;;;0.93;;
33162;SDS011;29282;45.656;11.302;2022-08-21T07:03:57;1.95;;;1.15;;
33162;SDS011;29282;45.656;11.302;2022-08-21T07:06:22;2.10;;;1.20;;
33162;SDS011;29282;45.656;11.302;2022-08-21T07:08:48;4.05;;;1.10;;
33162;SDS011;29282;45.656;11.302;2022-08-21T07:11:17;1.23;;;1.13;;
33162;SDS011;29282;45.656;11.302;2022-08-21T07:13:44;1.17;;;0.93;;
33162;SDS011;29282;45.656;11.302;2022-08-21T07:16:10;1.08;;;0.98;;
33162;SDS011;29282;45.656;11.302;2022-08-21T07:18:36;1.23;;;1.00;;
33162;SDS011;29282;45.656;11.302;2022-08-21T07:21:03;2.25;;;1.27;;
33162;SDS011;29282;45.656;11.302;2022-08-21T07:23:31;1.75;;;0.88;;
33162;SDS011;29282;45.656;11.302;2022-08-21T07:25:59;0.95;;;0.95;;
33162;SDS011;29282;45.656;11.302;2022-08-21T07:28:25;2.58;;;1.20;;
33162;SDS011;29282;45.656;11.302;2022-08-21T07:30:52;1.00;;;0.90;;
33162;SDS011;29282;45.656;11.302;2022-08-21T07:33:19;1.17;;;1.00;;
33162;SDS011;29282;45.656;11.302;2022-08-21T07:35:45;0.80;;;0.80;;
33162;SDS011;29282;45.656;11.302;2022-08-21T07:38:11;1.20;;;1.10;;
33162;SDS011;29282;45.656;11.302;2022-08-21T07:40:36;0.82;;;0.82;;
33162;SDS011;29282;45.656;11.302;2022-08-21T07:43:02;4.53;;;1.10;;
33162;SDS011;29282;45.656;11.302;2022-08-21T07:45:28;0.80;;;0.80;;
33162;SDS011;29282;45.656;11.302;2022-08-21T07:47:53;1.17;;;1.05;;
33162;SDS011;29282;45.656;11.302;2022-08-21T07:50:19;1.20;;;1.10;;
33162;SDS011;29282;45.656;11.302;2022-08-21T07:52:45;2.35;;;1.00;;
33162;SDS011;29282;45.656;11.302;2022-08-21T07:55:11;11.52;;;1.00;;
33162;SDS011;29282;45.656;11.302;2022-08-21T07:57:39;3.30;;;1.13;;
33162;SDS011;29282;45.656;11.302;2022-08-21T08:00:06;5.68;;;1.23;;
33162;SDS011;29282;45.656;11.302;2022-08-21T08:02:34;3.65;;;1.02;;
33162;SDS011;29282;45.656;11.302;2022-08-21T08:05:01;6.63;;;1.30;;
33162;SDS011;29282;45.656;11.302;2022-08-21T08:07:29;10.23;;;1.88;;
33162;SDS011;29282;45.656;11.302;2022-08-21T08:09:55;4.80;;;1.30;;
33162;SDS011;29282;45.656;11.302;2022-08-21T08:12:21;6.10;;;1.50;;
33162;SDS011;29282;45.656;11.302;2022-08-21T08:14:47;8.27;;;1.52;;
33162;SDS011;29282;45.656;11.302;2022-08-21T08:17:12;3.70;;;1.10;;
33162;SDS011;29282;45.656;11.302;2022-08-21T08:19:38;6.22;;;1.33;;
33162;SDS011;29282;45.656;11.302;2022-08-21T08:22:14;5.85;;;1.20;;
33162;SDS011;29282;45.656;11.302;2022-08-21T08:24:41;8.77;;;1.42;;
33162;SDS011;29282;45.656;11.302;2022-08-21T08:27:07;8.43;;;1.30;;
33162;SDS011;29282;45.656;11.302;2022-08-21T08:29:32;6.63;;;1.38;;
33162;SDS011;29282;45.656;11.302;2022-08-21T08:31:58;8.88;;;1.65;;
33162;SDS011;29282;45.656;11.302;2022-08-21T08:34:24;6.90;;;1.45;;
33162;SDS011;29282;45.656;11.302;2022-08-21T08:36:49;4.72;;;1.52;;
33162;SDS011;29282;45.656;11.302;2022-08-21T08:39:15;10.80;;;2.05;;
33162;SDS011;29282;45.656;11.302;2022-08-21T08:41:41;6.13;;;1.65;;
33162;SDS011;29282;45.656;11.302;2022-08-21T08:44:09;5.80;;;1.48;;
33162;SDS011;29282;45.656;11.302;2022-08-21T08:49:10;2.10;;;1.20;;
33162;SDS011;29282;45.656;11.302;2022-08-21T08:57:19;12.55;;;1.83;;
33162;SDS011;29282;45.656;11.302;2022-08-21T08:59:55;3.15;;;1.40;;
33162;SDS011;29282;45.656;11.302;2022-08-21T09:02:23;7.90;;;1.33;;
33162;SDS011;29282;45.656;11.302;2022-08-21T09:04:49;3.22;;;1.67;;
33162;SDS011;29282;45.656;11.302;2022-08-21T09:10:19;5.78;;;1.48;;
33162;SDS011;29282;45.656;11.302;2022-08-21T09:21:38;5.22;;;1.58;;
33162;SDS011;29282;45.656;11.302;2022-08-21T09:24:21;2.50;;;1.20;;
33162;SDS011;29282;45.656;11.302;2022-08-21T09:26:57;3.20;;;1.00;;
33162;SDS011;29282;45.656;11.302;2022-08-21T09:29:28;6.30;;;1.50;;
33162;SDS011;29282;45.656;11.302;2022-08-21T09:31:57;2.65;;;1.20;;
33162;SDS011;29282;45.656;11.302;2022-08-21T09:34:26;4.80;;;1.50;;
33162;SDS011;29282;45.656;11.302;2022-08-21T09:36:54;20.50;;;2.10;;
33162;SDS011;29282;45.656;11.302;2022-08-21T09:42:00;15.40;;;1.95;;
33162;SDS011;29282;45.656;11.302;2022-08-21T09:44:33;8.45;;;1.30;;
33162;SDS011;29282;45.656;11.302;2022-08-21T09:47:05;16.55;;;2.08;;
33162;SDS011;29282;45.656;11.302;2022-08-21T09:49:33;8.60;;;1.77;;
33162;SDS011;29282;45.656;11.302;2022-08-21T09:52:02;4.05;;;1.30;;
33162;SDS011;29282;45.656;11.302;2022-08-21T09:54:32;12.45;;;1.80;;
33162;SDS011;29282;45.656;11.302;2022-08-21T09:59:52;8.80;;;1.50;;
33162;SDS011;29282;45.656;11.302;2022-08-21T10:02:28;5.55;;;1.52;;
33162;SDS011;29282;45.656;11.302;2022-08-21T10:04:57;2.92;;;1.23;;
33162;SDS011;29282;45.656;11.302;2022-08-21T10:07:25;5.50;;;1.30;;
33162;SDS011;29282;45.656;11.302;2022-08-21T10:10:07;8.32;;;1.40;;
33162;SDS011;29282;45.656;11.302;2022-08-21T10:12:45;5.43;;;1.40;;
33162;SDS011;29282;45.656;11.302;2022-08-21T10:15:46;4.78;;;1.40;;
33162;SDS011;29282;45.656;11.302;2022-08-21T10:37:39;3.80;;;1.50;;
33162;SDS011;29282;45.656;11.302;2022-08-21T10:42:46;6.75;;;1.50;;
33162;SDS011;29282;45.656;11.302;2022-08-21T10:47:55;3.25;;;1.35;;
33162;SDS011;29282;45.656;11.302;2022-08-21T10:56:19;7.45;;;1.70;;
33162;SDS011;29282;45.656;11.302;2022-08-21T10:59:04;4.35;;;1.88;;
33162;SDS011;29282;45.656;11.302;2022-08-21T11:04:59;3.33;;;1.40;;
33162;SDS011;29282;45.656;11.302;2022-08-21T11:07:48;3.15;;;1.40;;
33162;SDS011;29282;45.656;11.302;2022-08-21T11:10:41;6.35;;;1.45;;
33162;SDS011;29282;45.656;11.302;2022-08-21T11:13:21;2.75;;;1.33;;
33162;SDS011;29282;45.656;11.302;2022-08-21T11:19:08;5.05;;;1.73;;
33162;SDS011;29282;45.656;11.302;2022-08-21T11:29:40;4.00;;;1.58;;
33162;SDS011;29282;45.656;11.302;2022-08-21T11:45:50;6.07;;;1.70;;
33162;SDS011;29282;45.656;11.302;2022-08-21T11:50:58;5.88;;;1.67;;
33162;SDS011;29282;45.656;11.302;2022-08-21T11:53:34;5.20;;;1.67;;
33162;SDS011;29282;45.656;11.302;2022-08-21T11:56:15;4.82;;;1.25;;
33162;SDS011;29282;45.656;11.302;2022-08-21T11:59:11;3.63;;;1.48;;
33162;SDS011;29282;45.656;11.302;2022-08-21T12:01:45;3.72;;;1.42;;
33162;SDS011;29282;45.656;11.302;2022-08-21T12:04:27;7.82;;;1.67;;
33162;SDS011;29282;45.656;11.302;2022-08-21T12:07:08;4.72;;;1.80;;
33162;SDS011;29282;45.656;11.302;2022-08-21T12:09:36;5.03;;;1.92;;
33162;SDS011;29282;45.656;11.302;2022-08-21T12:14:38;4.40;;;1.45;;
33162;SDS011;29282;45.656;11.302;2022-08-21T12:17:17;5.78;;;1.60;;
33162;SDS011;29282;45.656;11.302;2022-08-21T12:20:02;5.47;;;1.85;;
33162;SDS011;29282;45.656;11.302;2022-08-21T12:25:15;4.80;;;1.88;;
33162;SDS011;29282;45.656;11.302;2022-08-21T12:33:00;4.70;;;1.55;;
33162;SDS011;29282;45.656;11.302;2022-08-21T12:35:33;4.50;;;1.23;;
33162;SDS011;29282;45.656;11.302;2022-08-21T12:40:45;5.60;;;1.70;;
33162;SDS011;29282;45.656;11.302;2022-08-21T12:43:20;2.35;;;1.10;;
33162;SDS011;29282;45.656;11.302;2022-08-21T12:46:15;4.07;;;1.50;;
33162;SDS011;29282;45.656;11.302;2022-08-21T12:48:46;5.25;;;1.73;;
33162;SDS011;29282;45.656;11.302;2022-08-21T12:51:24;3.47;;;1.73;;
33162;SDS011;29282;45.656;11.302;2022-08-21T12:53:58;3.88;;;1.25;;
33162;SDS011;29282;45.656;11.302;2022-08-21T12:56:25;3.47;;;1.63;;
33162;SDS011;29282;45.656;11.302;2022-08-21T12:59:00;1.90;;;1.27;;
33162;SDS011;29282;45.656;11.302;2022-08-21T13:04:08;4.07;;;1.60;;
33162;SDS011;29282;45.656;11.302;2022-08-21T13:06:39;5.20;;;1.52;;
33162;SDS011;29282;45.656;11.302;2022-08-21T13:09:12;3.55;;;1.52;;
33162;SDS011;29282;45.656;11.302;2022-08-21T13:11:42;3.60;;;1.50;;
33162;SDS011;29282;45.656;11.302;2022-08-21T13:14:15;2.72;;;1.35;;
33162;SDS011;29282;45.656;11.302;2022-08-21T13:16:52;5.63;;;1.30;;
33162;SDS011;29282;45.656;11.302;2022-08-21T13:19:19;6.18;;;1.60;;
33162;SDS011;29282;45.656;11.302;2022-08-21T13:21:45;12.65;;;1.30;;
33162;SDS011;29282;45.656;11.302;2022-08-21T13:24:16;5.15;;;1.30;;
33162;SDS011;29282;45.656;11.302;2022-08-21T13:26:46;6.38;;;1.40;;
33162;SDS011;29282;45.656;11.302;2022-08-21T13:29:14;6.75;;;1.42;;
33162;SDS011;29282;45.656;11.302;2022-08-21T13:31:46;2.08;;;1.13;;
33162;SDS011;29282;45.656;11.302;2022-08-21T13:34:14;2.85;;;1.17;;
33162;SDS011;29282;45.656;11.302;2022-08-21T13:36:42;2.28;;;1.20;;
33162;SDS011;29282;45.656;11.302;2022-08-21T13:39:11;4.18;;;1.50;;
33162;SDS011;29282;45.656;11.302;2022-08-21T13:41:40;8.63;;;1.63;;
33162;SDS011;29282;45.656;11.302;2022-08-21T13:47:09;2.63;;;1.30;;
33162;SDS011;29282;45.656;11.302;2022-08-21T13:49:37;3.50;;;1.20;;
33162;SDS011;29282;45.656;11.302;2022-08-21T13:52:13;3.83;;;1.25;;
33162;SDS011;29282;45.656;11.302;2022-08-21T13:54:41;3.60;;;1.50;;
33162;SDS011;29282;45.656;11.302;2022-08-21T13:57:23;5.60;;;1.20;;
33162;SDS011;29282;45.656;11.302;2022-08-21T14:02:50;5.15;;;1.55;;
33162;SDS011;29282;45.656;11.302;2022-08-21T14:07:50;4.13;;;1.30;;
33162;SDS011;29282;45.656;11.302;2022-08-21T14:10:23;2.25;;;1.23;;
33162;SDS011;29282;45.656;11.302;2022-08-21T14:15:19;4.05;;;1.30;;
33162;SDS011;29282;45.656;11.302;2022-08-21T14:17:50;4.53;;;1.50;;
33162;SDS011;29282;45.656;11.302;2022-08-21T14:20:49;8.38;;;1.40;;
33162;SDS011;29282;45.656;11.302;2022-08-21T14:23:08;3.72;;;1.20;;
33162;SDS011;29282;45.656;11.302;2022-08-21T14:25:39;3.58;;;1.63;;
33162;SDS011;29282;45.656;11.302;2022-08-21T14:30:50;4.38;;;1.52;;
33162;SDS011;29282;45.656;11.302;2022-08-21T14:33:24;3.75;;;1.58;;
33162;SDS011;29282;45.656;11.302;2022-08-21T14:35:52;7.47;;;1.55;;
33162;SDS011;29282;45.656;11.302;2022-08-21T14:38:20;4.07;;;1.30;;
33162;SDS011;29282;45.656;11.302;2022-08-21T14:40:52;12.75;;;1.55;;
33162;SDS011;29282;45.656;11.302;2022-08-21T14:43:20;17.45;;;2.10;;
33162;SDS011;29282;45.656;11.302;2022-08-21T14:45:46;30.05;;;2.45;;
33162;SDS011;29282;45.656;11.302;2022-08-21T14:48:12;26.30;;;2.03;;
33162;SDS011;29282;45.656;11.302;2022-08-21T14:50:38;32.33;;;3.28;;
33162;SDS011;29282;45.656;11.302;2022-08-21T14:53:04;43.72;;;3.13;;
33162;SDS011;29282;45.656;11.302;2022-08-21T14:55:32;51.03;;;4.55;;
33162;SDS011;29282;45.656;11.302;2022-08-21T14:58:18;55.22;;;4.30;;
33162;SDS011;29282;45.656;11.302;2022-08-21T15:00:44;56.15;;;4.35;;
33162;SDS011;29282;45.656;11.302;2022-08-21T15:03:09;53.90;;;5.30;;
33162;SDS011;29282;45.656;11.302;2022-08-21T15:05:35;34.72;;;2.92;;
33162;SDS011;29282;45.656;11.302;2022-08-21T15:08:01;40.30;;;4.15;;
33162;SDS011;29282;45.656;11.302;2022-08-21T15:10:27;21.52;;;2.95;;
33162;SDS011;29282;45.656;11.302;2022-08-21T15:12:52;19.58;;;2.53;;
33162;SDS011;29282;45.656;11.302;2022-08-21T15:15:18;35.90;;;2.90;;
33162;SDS011;29282;45.656;11.302;2022-08-21T15:17:44;28.88;;;3.00;;
33162;SDS011;29282;45.656;11.302;2022-08-21T15:20:09;28.05;;;3.55;;
33162;SDS011;29282;45.656;11.302;2022-08-21T15:22:35;29.33;;;2.70;;
33162;SDS011;29282;45.656;11.302;2022-08-21T15:25:01;47.80;;;3.95;;
33162;SDS011;29282;45.656;11.302;2022-08-21T15:27:27;46.45;;;3.85;;
33162;SDS011;29282;45.656;11.302;2022-08-21T15:29:53;34.08;;;3.05;;
33162;SDS011;29282;45.656;11.302;2022-08-21T15:32:21;34.35;;;3.83;;
33162;SDS011;29282;45.656;11.302;2022-08-21T15:34:49;30.90;;;3.38;;
33162;SDS011;29282;45.656;11.302;2022-08-21T15:37:16;28.92;;;3.13;;
33162;SDS011;29282;45.656;11.302;2022-08-21T15:39:42;35.58;;;3.63;;
33162;SDS011;29282;45.656;11.302;2022-08-21T15:42:07;35.85;;;3.58;;
33162;SDS011;29282;45.656;11.302;2022-08-21T15:44:34;36.28;;;3.45;;
33162;SDS011;29282;45.656;11.302;2022-08-21T15:47:00;28.48;;;4.05;;
33162;SDS011;29282;45.656;11.302;2022-08-21T15:49:26;34.05;;;3.78;;
33162;SDS011;29282;45.656;11.302;2022-08-21T15:51:51;25.55;;;3.42;;
33162;SDS011;29282;45.656;11.302;2022-08-21T15:54:17;33.50;;;4.45;;
33162;SDS011;29282;45.656;11.302;2022-08-21T15:56:43;29.02;;;3.47;;
33162;SDS011;29282;45.656;11.302;2022-08-21T15:59:15;32.20;;;3.80;;
33162;SDS011;29282;45.656;11.302;2022-08-21T16:01:43;23.45;;;2.85;;
33162;SDS011;29282;45.656;11.302;2022-08-21T16:04:12;35.45;;;3.22;;
33162;SDS011;29282;45.656;11.302;2022-08-21T16:06:44;31.70;;;3.33;;
33162;SDS011;29282;45.656;11.302;2022-08-21T16:09:10;28.67;;;3.63;;
33162;SDS011;29282;45.656;11.302;2022-08-21T16:11:35;22.77;;;3.30;;
33162;SDS011;29282;45.656;11.302;2022-08-21T16:14:01;19.15;;;3.10;;
33162;SDS011;29282;45.656;11.302;2022-08-21T16:16:26;16.10;;;2.83;;
33162;SDS011;29282;45.656;11.302;2022-08-21T16:18:54;22.60;;;3.13;;
33162;SDS011;29282;45.656;11.302;2022-08-21T16:21:19;23.80;;;2.63;;
33162;SDS011;29282;45.656;11.302;2022-08-21T16:23:45;31.38;;;3.38;;
33162;SDS011;29282;45.656;11.302;2022-08-21T16:26:11;24.92;;;3.67;;
33162;SDS011;29282;45.656;11.302;2022-08-21T16:28:39;24.05;;;4.15;;
33162;SDS011;29282;45.656;11.302;2022-08-21T16:31:07;28.70;;;3.45;;
33162;SDS011;29282;45.656;11.302;2022-08-21T16:33:34;20.77;;;3.42;;
33162;SDS011;29282;45.656;11.302;2022-08-21T16:36:03;25.00;;;3.33;;